Time;durP1;ratioP1;P1;durP2;ratioP2;P2;SDS_P1;SDS_P2;PMS_P1;PMS_P2;Temp;Humidity;BMP_temperature;BMP_pressure;BME280_temperature;BME280_humidity;BME280_pressure;Samples;Min_cycle;Max_cycle;Signal;HPM_P1;HPM_P2
2024/04/03 00:00:29;;;;;;;7.65;2.40;;;;;;;8.78;83.02;98005.97;4999195;28;20040;-85
2024/04/03 00:02:54;;;;;;;7.32;2.95;;;;;;;8.68;83.77;98005.13;4997578;28;20065;-86
2024/04/03 00:05:19;;;;;;;9.02;2.25;;;;;;;8.46;83.40;97957.38;4993009;28;20030;-86
2024/04/03 00:07:45;;;;;;;8.65;3.65;;;;;;;8.09;84.05;97906.06;4994477;28;20026;-86
2024/04/03 00:10:10;;;;;;;11.20;2.55;;;;;;;8.81;83.84;98004.66;4990225;28;20069;-86
2024/04/03 00:12:36;;;;;;;4.28;2.38;;;;;;;8.80;83.93;97997.75;4999775;28;20545;-87
2024/04/03 00:15:01;;;;;;;14.70;2.88;;;;;;;8.64;83.61;97977.44;4994750;28;20045;-86
2024/04/03 00:17:26;;;;;;;11.80;2.83;;;;;;;8.71;83.15;97980.69;4993256;28;20034;-85
2024/04/03 00:19:52;;;;;;;8.45;2.72;;;;;;;8.75;83.10;97987.88;5005899;28;20064;-86
2024/04/03 00:22:17;;;;;;;10.82;3.22;;;;;;;8.64;83.73;97996.88;4983551;28;20644;-86
2024/04/03 00:24:42;;;;;;;6.80;2.47;;;;;;;8.66;83.61;97992.09;4996695;28;20030;-85
2024/04/03 00:27:08;;;;;;;9.98;2.60;;;;;;;8.71;83.99;97989.47;4999130;28;20041;-86
2024/04/03 00:29:33;;;;;;;6.22;2.65;;;;;;;8.76;83.75;97981.50;4995790;28;20026;-85
2024/04/03 00:31:59;;;;;;;8.07;2.63;;;;;;;8.58;83.43;97991.78;5009440;28;20045;-86
2024/04/03 00:34:24;;;;;;;12.63;2.92;;;;;;;8.38;83.67;97941.91;4993118;28;20038;-86
2024/04/03 00:36:49;;;;;;;9.15;2.70;;;;;;;8.36;83.22;97962.63;5009487;28;20041;-86
2024/04/03 00:39:15;;;;;;;7.32;2.35;;;;;;;8.48;83.78;97978.38;4991366;28;20493;-86
2024/04/03 00:41:40;;;;;;;5.85;2.83;;;;;;;8.25;83.74;97948.47;4975586;28;21989;-86
2024/04/03 00:44:05;;;;;;;9.02;2.72;;;;;;;8.63;83.88;97981.94;4993406;28;20041;-86
2024/04/03 00:46:31;;;;;;;9.88;2.67;;;;;;;8.07;83.68;97930.22;4995677;28;20122;-86
2024/04/03 00:48:57;;;;;;;5.03;2.47;;;;;;;8.30;83.96;97942.38;4978798;28;20560;-85
2024/04/03 00:51:23;;;;;;;7.18;2.92;;;;;;;8.39;83.61;97948.03;4991720;28;20490;-86
2024/04/03 00:53:49;;;;;;;9.30;3.22;;;;;;;8.13;83.52;97974.38;4978692;28;20042;-86
2024/04/03 00:56:15;;;;;;;14.02;3.13;;;;;;;8.38;83.96;97971.16;5012977;28;20127;-87
2024/04/03 00:58:41;;;;;;;7.88;2.97;;;;;;;8.39;83.64;97950.69;4976327;28;20096;-86
2024/04/03 01:01:06;;;;;;;11.15;2.70;;;;;;;8.38;84.00;97971.16;4993168;28;20033;-86
2024/04/03 01:03:31;;;;;;;7.97;2.58;;;;;;;7.97;83.66;97924.03;4993260;28;20366;-86
2024/04/03 01:06:04;;;;;;;9.70;3.33;;;;;;;8.29;84.24;97978.81;4994173;28;20112;-87
2024/04/03 01:08:30;;;;;;;10.07;2.50;;;;;;;8.10;84.21;97935.03;5011182;28;20025;-85
2024/04/03 01:10:57;;;;;;;9.98;3.92;;;;;;;8.44;83.41;97971.97;5007239;28;20045;-86
2024/04/03 01:13:23;;;;;;;8.52;2.50;;;;;;;8.29;82.60;97952.22;5010326;28;20045;-85
2024/04/03 01:15:55;;;;;;;5.38;2.53;;;;;;;8.36;83.95;97970.63;4989575;28;20790;-85
2024/04/03 01:18:21;;;;;;;7.35;2.72;;;;;;;8.30;83.98;97961.78;4991948;28;20030;-86
2024/04/03 01:20:47;;;;;;;8.70;3.10;;;;;;;8.20;83.31;97934.31;5008878;28;20099;-87
2024/04/03 01:23:12;;;;;;;5.47;2.42;;;;;;;8.38;83.79;97960.53;4977166;28;20032;-85
2024/04/03 01:25:37;;;;;;;6.28;2.70;;;;;;;8.25;83.23;97937.00;4991662;28;20120;-86
2024/04/03 01:28:03;;;;;;;17.48;4.70;;;;;;;8.02;82.97;97924.06;4977836;28;20042;-86
2024/04/03 01:30:28;;;;;;;12.02;3.80;;;;;;;8.32;83.76;97941.06;5012134;28;20076;-86
2024/04/03 01:32:54;;;;;;;9.23;2.60;;;;;;;8.35;82.70;97931.78;5010759;28;20042;-85
2024/04/03 01:35:19;;;;;;;10.23;2.60;;;;;;;8.50;83.07;97953.16;4992592;28;20064;-85
2024/04/03 01:37:44;;;;;;;6.63;2.53;;;;;;;8.24;82.78;97906.97;4994270;28;20047;-87
2024/04/03 01:40:10;;;;;;;8.95;3.22;;;;;;;8.41;82.81;97954.69;4999503;28;20048;-86
2024/04/03 01:42:35;;;;;;;5.78;2.50;;;;;;;8.49;83.12;97953.41;4994290;28;20101;-86
2024/04/03 01:45:01;;;;;;;5.78;2.35;;;;;;;8.19;83.25;97916.78;4996420;28;20074;-86
2024/04/03 01:47:26;;;;;;;6.20;2.63;;;;;;;8.35;82.43;97926.47;4980092;28;20037;-85
2024/04/03 01:49:53;;;;;;;5.82;2.63;;;;;;;8.39;82.55;97932.88;4974379;28;20425;-85
2024/04/03 01:52:19;;;;;;;7.38;2.22;;;;;;;8.26;83.14;97942.09;5010345;28;20034;-86
2024/04/03 01:54:44;;;;;;;4.90;2.40;;;;;;;8.43;82.58;97923.31;5010765;28;20065;-85
2024/04/03 01:57:09;;;;;;;8.10;2.33;;;;;;;8.49;82.26;97935.59;4993009;28;20013;-86
2024/04/03 01:59:35;;;;;;;7.03;2.30;;;;;;;8.29;82.62;97914.19;4977638;28;20402;-86
2024/04/03 02:02:00;;;;;;;8.20;2.30;;;;;;;8.12;82.33;97921.50;4964007;28;20033;-85
2024/04/03 02:04:25;;;;;;;4.75;2.30;;;;;;;8.33;83.17;97931.22;4992849;28;20025;-86
2024/04/03 02:06:51;;;;;;;6.15;2.38;;;;;;;8.45;83.13;97925.72;5014224;28;20045;-85
2024/04/03 02:09:16;;;;;;;8.27;2.60;;;;;;;8.31;82.76;97920.06;5012049;28;20037;-86
2024/04/03 02:11:42;;;;;;;11.32;2.72;;;;;;;8.24;83.20;97924.75;4997022;28;20387;-87
2024/04/03 02:14:12;;;;;;;6.38;2.53;;;;;;;7.50;84.10;97815.03;4995032;28;20116;-85
2024/04/03 02:16:37;;;;;;;6.47;2.50;;;;;;;8.21;83.68;97912.78;5009589;28;20034;-86
2024/04/03 02:19:02;;;;;;;9.25;2.47;;;;;;;7.83;83.90;97867.06;4976869;28;20042;-86
2024/04/03 02:21:28;;;;;;;5.97;2.05;;;;;;;8.28;83.42;97920.56;4977010;28;20033;-86
2024/04/03 02:23:53;;;;;;;4.93;2.13;;;;;;;8.40;83.85;97923.03;4991305;28;20164;-86
2024/04/03 02:26:18;;;;;;;5.22;2.40;;;;;;;8.14;82.82;97876.88;4996183;28;20440;-87
2024/04/03 02:28:43;;;;;;;7.18;2.55;;;;;;;8.33;83.14;97928.56;4990189;28;20405;-85
2024/04/03 02:31:09;;;;;;;8.35;2.63;;;;;;;7.96;83.32;97872.75;4994767;28;20504;-85
2024/04/03 02:33:34;;;;;;;10.77;2.95;;;;;;;8.24;83.38;97909.63;4979342;28;20913;-86
2024/04/03 02:36:10;;;;;;;4.97;2.33;;;;;;;8.47;83.18;97927.09;5008324;28;20037;-85
2024/04/03 02:38:36;;;;;;;7.30;2.28;;;;;;;8.30;82.87;97903.31;4997531;28;20026;-86
2024/04/03 02:41:01;;;;;;;6.88;2.65;;;;;;;8.51;83.22;97920.19;5015316;28;20033;-86
2024/04/03 02:43:26;;;;;;;3.65;1.85;;;;;;;8.40;83.52;97907.09;4996233;28;20044;-85
2024/04/03 02:45:56;;;;;;;5.20;2.40;;;;;;;8.46;83.31;97917.50;4978374;28;20030;-86
2024/04/03 02:48:21;;;;;;;3.83;2.00;;;;;;;8.32;83.25;97914.47;4996612;28;20038;-86
2024/04/03 02:50:58;;;;;;;8.07;2.33;;;;;;;8.26;83.78;97907.53;4995020;28;20044;-85
2024/04/03 02:53:24;;;;;;;6.88;2.42;;;;;;;8.15;83.98;97867.81;4994784;28;20389;-86
2024/04/03 02:55:49;;;;;;;8.13;2.17;;;;;;;8.15;84.33;97894.41;4961313;28;20029;-86
2024/04/03 02:58:14;;;;;;;4.70;2.03;;;;;;;8.13;83.92;97881.38;4963725;28;20049;-85
2024/04/03 03:00:40;;;;;;;3.25;2.40;;;;;;;8.14;84.85;97893.63;4978204;28;20038;-86
2024/04/03 03:03:05;;;;;;;6.43;1.83;;;;;;;7.58;84.75;97791.47;4995536;28;20028;-86
2024/04/03 03:05:30;;;;;;;7.72;1.63;;;;;;;7.64;85.09;97823.38;4998987;28;20065;-86
2024/04/03 03:07:56;;;;;;;10.68;1.98;;;;;;;8.05;84.68;97865.09;5010839;28;20039;-86
2024/04/03 03:10:21;;;;;;;3.53;2.00;;;;;;;8.13;84.79;97892.00;4961153;28;20030;-86
2024/04/03 03:12:47;;;;;;;4.22;1.75;;;;;;;8.00;85.41;97875.69;5013048;28;20044;-86
2024/04/03 03:15:12;;;;;;;2.47;1.77;;;;;;;7.97;85.19;97881.53;4993983;28;20489;-85
2024/04/03 03:17:37;;;;;;;10.35;2.03;;;;;;;8.32;85.36;97905.72;4993315;28;20032;-86
2024/04/03 03:20:03;;;;;;;5.25;1.90;;;;;;;8.07;85.16;97863.00;4988488;28;20083;-86
2024/04/03 03:22:28;;;;;;;7.10;2.15;;;;;;;8.39;84.54;97897.53;4973726;28;20027;-85
2024/04/03 03:24:54;;;;;;;7.07;3.05;;;;;;;8.41;84.77;97898.84;4976515;28;21521;-86
2024/04/03 03:27:19;;;;;;;5.88;1.98;;;;;;;7.94;84.42;97819.06;4989919;28;20037;-87
2024/04/03 03:29:44;;;;;;;7.20;1.98;;;;;;;8.19;84.48;97875.03;4992551;28;20034;-86
2024/04/03 03:32:10;;;;;;;3.45;1.92;;;;;;;8.28;85.24;97909.94;4970061;28;20111;-86
2024/04/03 03:34:35;;;;;;;5.13;1.60;;;;;;;7.83;85.99;97827.22;4989750;28;20391;-86
2024/04/03 03:37:00;;;;;;;2.88;1.80;;;;;;;8.45;84.89;97902.59;4978989;28;20505;-86
2024/04/03 03:39:26;;;;;;;7.30;3.50;;;;;;;8.12;84.64;97857.72;4989437;28;20034;-86
2024/04/03 03:41:51;;;;;;;4.20;2.47;;;;;;;8.32;85.21;97881.78;4973324;28;20090;-86
2024/04/03 03:44:16;;;;;;;4.03;1.80;;;;;;;8.22;85.00;97879.03;4974668;28;20452;-86
2024/04/03 03:46:42;;;;;;;2.30;2.10;;;;;;;8.30;85.57;97897.19;4993562;28;20038;-86
2024/04/03 03:54:37;;;;;;;3.45;1.73;;;;;;;8.54;84.32;97901.03;5014117;28;20064;-86
2024/04/03 03:57:02;;;;;;;2.72;1.33;;;;;;;8.66;83.93;97891.00;5015107;28;20026;-86
2024/04/03 03:59:28;;;;;;;5.50;2.40;;;;;;;8.35;84.13;97864.50;4993469;28;20516;-86
2024/04/03 04:01:53;;;;;;;5.10;1.35;;;;;;;8.63;84.21;97894.16;4993936;28;20030;-87
2024/04/03 04:04:19;;;;;;;6.40;1.60;;;;;;;7.98;84.87;97808.72;4993742;28;20026;-86
2024/04/03 04:06:44;;;;;;;5.57;1.88;;;;;;;8.53;84.90;97901.31;4993111;28;20065;-86
2024/04/03 04:09:09;;;;;;;6.85;1.95;;;;;;;7.73;86.14;97784.69;5010751;28;20037;-86
2024/04/03 04:11:35;;;;;;;3.78;1.52;;;;;;;8.33;84.90;97854.13;4995496;28;20033;-86
2024/04/03 04:14:00;;;;;;;1.92;1.52;;;;;;;8.41;85.14;97866.94;4994193;28;20076;-86
2024/04/03 04:16:25;;;;;;;9.77;1.73;;;;;;;8.40;84.82;97872.53;4962208;28;20022;-86
2024/04/03 04:18:51;;;;;;;4.55;1.60;;;;;;;8.41;85.31;97866.16;4999459;28;20509;-85
2024/04/03 04:21:18;;;;;;;4.90;1.50;;;;;;;8.51;85.41;97888.28;4979311;28;20037;-86
2024/04/03 04:23:44;;;;;;;3.83;1.65;;;;;;;8.34;86.13;97865.59;4991436;28;20034;-87
2024/04/03 04:26:09;;;;;;;2.88;1.58;;;;;;;8.19;86.07;97845.00;5005739;28;21664;-86
2024/04/03 04:28:34;;;;;;;5.47;1.50;;;;;;;8.40;85.99;97881.31;4991073;28;20060;-86
2024/04/03 04:31:01;;;;;;;3.40;1.90;;;;;;;8.40;86.81;97881.31;4992882;28;20339;-87
2024/04/03 04:33:31;;;;;;;3.38;1.50;;;;;;;8.19;86.79;97861.72;4992130;28;20042;-86
2024/04/03 04:35:57;;;;;;;4.18;1.70;;;;;;;8.37;86.20;97878.34;5006197;28;20026;-87
2024/04/03 04:38:24;;;;;;;5.88;1.58;;;;;;;8.38;86.38;97882.63;4975479;28;20045;-88
2024/04/03 04:40:57;;;;;;;3.40;1.58;;;;;;;8.14;87.48;97867.03;5009474;28;20029;-87
2024/04/03 04:43:23;;;;;;;3.13;1.58;;;;;;;8.11;86.55;97840.97;4990835;28;20041;-88
2024/04/03 04:46:08;;;;;;;4.40;1.60;;;;;;;8.35;86.85;97891.91;4972504;28;20516;-87
2024/04/03 04:48:34;;;;;;;2.83;1.77;;;;;;;8.52;86.23;97886.44;5008109;28;20046;-87
2024/04/03 04:51:01;;;;;;;2.53;1.30;;;;;;;8.52;86.14;97892.53;5007734;28;20022;-87
2024/04/03 04:53:27;;;;;;;7.53;1.92;;;;;;;8.25;86.33;97841.31;5011112;28;20049;-87
2024/04/03 04:56:03;;;;;;;5.57;1.45;;;;;;;8.52;86.12;97891.75;5004527;28;20446;-88
2024/04/03 04:58:28;;;;;;;5.28;1.70;;;;;;;8.52;85.46;97876.56;5001446;28;20026;-87
2024/04/03 05:01:01;;;;;;;6.32;2.13;;;;;;;8.43;86.51;97888.75;5003264;28;20048;-87
2024/04/03 05:03:27;;;;;;;7.35;1.58;;;;;;;8.28;86.74;97880.69;5005116;28;20078;-88
2024/04/03 05:05:52;;;;;;;5.40;1.35;;;;;;;7.94;86.95;97823.59;5006771;28;20471;-88
2024/04/03 05:08:18;;;;;;;6.68;1.48;;;;;;;8.20;86.76;97857.22;4969596;28;20153;-88
2024/04/03 05:10:50;;;;;;;5.82;1.75;;;;;;;8.57;85.95;97897.06;4975705;28;20529;-87
2024/04/03 05:13:17;;;;;;;8.77;1.98;;;;;;;8.42;87.05;97895.13;4991022;28;20034;-87
2024/04/03 05:15:43;;;;;;;6.70;2.63;;;;;;;8.30;87.29;97871.41;4994045;28;20133;-88
2024/04/03 05:18:08;;;;;;;6.22;1.88;;;;;;;8.62;86.63;97889.94;4976136;28;20546;-88
2024/04/03 05:20:33;;;;;;;1.55;1.45;;;;;;;8.48;87.72;97899.41;4998963;28;20497;-87
2024/04/03 05:22:59;;;;;;;5.00;1.75;;;;;;;8.19;88.92;97892.84;4979801;28;20037;-87
2024/04/03 05:25:24;;;;;;;3.63;1.80;;;;;;;8.50;86.57;97878.69;4982406;28;20073;-87
2024/04/03 05:27:49;;;;;;;4.57;1.88;;;;;;;8.11;89.34;97877.38;4981653;28;20034;-87
2024/04/03 05:30:15;;;;;;;5.90;1.65;;;;;;;8.11;87.44;97824.22;4981529;28;20385;-87
2024/04/03 05:32:40;;;;;;;3.45;1.40;;;;;;;8.65;86.44;97891.28;4969174;28;20034;-88
2024/04/03 05:35:06;;;;;;;2.55;1.50;;;;;;;8.80;85.49;97888.69;4995541;28;20034;-88
2024/04/03 05:37:32;;;;;;;4.45;1.50;;;;;;;8.63;85.58;97875.56;5001489;28;20029;-88
2024/04/03 05:39:57;;;;;;;3.78;2.40;;;;;;;8.57;86.32;97897.06;4979874;28;20401;-87
2024/04/03 05:42:23;;;;;;;2.55;1.20;;;;;;;8.74;85.92;97898.47;4987309;28;20084;-88
2024/04/03 05:44:48;;;;;;;4.40;2.10;;;;;;;8.59;85.90;97874.47;4982325;28;20041;-88
2024/04/03 05:47:14;;;;;;;4.00;1.83;;;;;;;8.60;85.73;97862.78;5001292;28;20026;-88
2024/04/03 05:49:40;;;;;;;2.45;1.33;;;;;;;8.21;86.21;97803.78;4987371;28;20065;-88
2024/04/03 05:52:05;;;;;;;8.77;2.05;;;;;;;8.73;86.76;97898.75;4979683;28;20566;-88
2024/04/03 05:54:31;;;;;;;3.00;1.45;;;;;;;8.75;86.57;97900.09;4969968;28;20037;-88
2024/04/03 05:56:56;;;;;;;5.50;1.48;;;;;;;8.84;85.66;97908.38;5000482;28;20025;-88
2024/04/03 05:59:22;;;;;;;4.57;1.45;;;;;;;8.65;87.22;97905.34;4992366;28;20042;-88
2024/04/03 06:01:47;;;;;;;3.20;1.92;;;;;;;8.66;87.65;97903.50;5014645;28;20558;-88
2024/04/03 06:04:13;;;;;;;6.28;2.33;;;;;;;8.64;87.71;97906.44;4978141;28;20113;-88
2024/04/03 06:06:39;;;;;;;4.35;1.55;;;;;;;8.64;87.52;97895.78;5012033;28;20072;-88
2024/04/03 06:09:04;;;;;;;5.22;2.00;;;;;;;8.63;86.58;97880.06;4997561;28;20117;-88
2024/04/03 06:11:30;;;;;;;4.95;1.45;;;;;;;8.48;86.63;97861.38;4967229;28;20432;-88
2024/04/03 06:13:55;;;;;;;2.28;1.65;;;;;;;8.76;87.29;97896.34;4976847;28;20041;-87
2024/04/03 06:16:21;;;;;;;5.55;1.80;;;;;;;8.70;87.70;97892.09;5005026;28;20169;-88
2024/04/03 06:18:46;;;;;;;4.47;1.40;;;;;;;8.93;86.15;97886.31;4996453;28;20049;-88
2024/04/03 06:21:12;;;;;;;5.82;1.98;;;;;;;8.51;86.63;97848.38;5000995;28;20033;-88
2024/04/03 06:23:38;;;;;;;4.88;1.60;;;;;;;8.89;86.94;97887.91;4992618;28;20520;-87
2024/04/03 06:26:03;;;;;;;5.65;2.05;;;;;;;8.61;86.64;97842.28;4997312;28;20071;-87
2024/04/03 06:28:29;;;;;;;4.90;1.88;;;;;;;8.91;86.86;97888.44;4967238;28;20113;-87
2024/04/03 06:30:55;;;;;;;1.58;1.30;;;;;;;8.63;87.33;97859.59;4980813;28;20524;-87
2024/04/03 06:33:20;;;;;;;8.45;1.98;;;;;;;8.84;88.45;97890.56;4994310;28;20042;-88
2024/04/03 06:35:45;;;;;;;3.80;1.65;;;;;;;8.70;88.50;97846.06;5011964;28;20029;-88
2024/04/03 06:38:12;;;;;;;1.80;1.70;;;;;;;8.40;87.54;97795.41;4980539;28;20398;-88
2024/04/03 06:40:38;;;;;;;6.93;1.58;;;;;;;8.80;88.15;97841.56;5013378;28;20034;-87
2024/04/03 06:43:04;;;;;;;3.45;1.80;;;;;;;8.51;87.98;97811.16;4983012;28;20048;-88
2024/04/03 06:45:30;;;;;;;5.43;1.80;;;;;;;8.78;88.97;97850.91;4986359;28;20034;-87
2024/04/03 06:47:55;;;;;;;9.07;2.22;;;;;;;9.06;87.98;97867.19;5000835;28;20037;-88
2024/04/03 06:50:21;;;;;;;3.22;1.75;;;;;;;9.03;88.10;97850.94;5004161;28;20092;-87
2024/04/03 06:52:46;;;;;;;3.97;2.13;;;;;;;8.92;87.43;97826.19;4995180;28;20084;-87
2024/04/03 06:55:12;;;;;;;4.72;1.90;;;;;;;9.29;87.19;97878.41;5013903;28;20066;-87
2024/04/03 06:57:38;;;;;;;5.03;2.03;;;;;;;9.22;88.02;97872.56;4979578;28;20048;-87
2024/04/03 07:00:03;;;;;;;3.55;1.83;;;;;;;9.03;89.05;97843.78;4971574;28;20574;-87
2024/04/03 07:02:29;;;;;;;9.15;3.05;;;;;;;9.23;89.01;97868.84;4998817;28;20045;-87
2024/04/03 07:04:54;;;;;;;4.32;2.15;;;;;;;9.10;87.92;97826.75;4993943;28;20050;-87
2024/04/03 07:07:20;;;;;;;5.03;1.85;;;;;;;9.33;87.85;97848.34;4996819;28;20038;-87
2024/04/03 07:09:45;;;;;;;7.00;1.77;;;;;;;9.24;88.55;97844.59;4996623;28;20030;-87
2024/04/03 07:12:10;;;;;;;4.38;1.75;;;;;;;9.27;88.62;97840.63;5009891;28;20409;-87
2024/04/03 07:14:36;;;;;;;7.40;2.80;;;;;;;9.47;87.47;97849.44;5009239;28;20026;-88
2024/04/03 07:17:01;;;;;;;3.85;2.35;;;;;;;9.13;89.60;97827.00;4993209;28;20034;-87
2024/04/03 07:19:27;;;;;;;5.50;2.03;;;;;;;9.41;87.87;97849.69;4963547;28;20057;-87
2024/04/03 07:21:53;;;;;;;3.55;1.80;;;;;;;9.19;89.20;97851.78;5006519;28;20038;-87
2024/04/03 07:24:19;;;;;;;4.88;2.00;;;;;;;8.81;89.82;97789.97;4973249;28;20053;-88
2024/04/03 07:26:46;;;;;;;6.35;2.58;;;;;;;9.23;89.76;97853.66;5009491;28;20030;-87
2024/04/03 07:29:14;;;;;;;6.45;2.30;;;;;;;9.19;90.14;97863.25;4994389;28;20033;-87
2024/04/03 07:31:39;;;;;;;4.72;1.60;;;;;;;9.45;89.46;97877.41;4962493;28;20026;-88
2024/04/03 07:34:05;;;;;;;5.40;2.05;;;;;;;9.21;89.12;97823.84;5010480;28;20036;-87
2024/04/03 07:36:30;;;;;;;3.35;1.98;;;;;;;9.39;88.79;97851.81;4979080;28;20120;-88
2024/04/03 07:38:55;;;;;;;7.05;1.65;;;;;;;9.60;88.71;97872.06;4979620;28;20022;-87
2024/04/03 07:41:23;;;;;;;3.78;1.73;;;;;;;9.45;89.93;97880.06;5012540;28;20034;-87
2024/04/03 07:43:51;;;;;;;4.63;1.92;;;;;;;9.40;90.03;97854.22;4991502;28;20037;-85
2024/04/03 07:46:16;;;;;;;2.35;1.67;;;;;;;9.38;90.46;97856.34;4986718;28;20030;-85
2024/04/03 07:48:41;;;;;;;5.50;2.63;;;;;;;9.49;90.73;97884.59;4971114;28;20091;-84
2024/04/03 07:51:07;;;;;;;2.33;1.63;;;;;;;9.47;89.66;97860.09;5000584;28;20037;-85
2024/04/03 07:53:32;;;;;;;5.05;2.30;;;;;;;9.43;89.95;97848.38;4985838;28;20030;-85
2024/04/03 07:55:59;;;;;;;8.30;2.35;;;;;;;9.62;90.06;97878.75;4985740;28;20053;-85
2024/04/03 07:58:24;;;;;;;5.10;1.80;;;;;;;9.41;89.08;97818.53;4986276;28;20037;-85
2024/04/03 08:00:59;;;;;;;8.80;2.22;;;;;;;9.69;89.65;97873.16;4989332;28;20042;-85
2024/04/03 08:03:25;;;;;;;6.50;2.40;;;;;;;9.75;89.54;97891.53;4983911;28;20125;-87
2024/04/03 08:05:54;;;;;;;8.80;2.33;;;;;;;9.88;89.17;97895.53;5006777;28;20720;-87
2024/04/03 08:08:22;;;;;;;5.15;1.90;;;;;;;9.80;89.43;97885.41;4982827;28;20022;-87
2024/04/03 08:10:48;;;;;;;9.40;1.90;;;;;;;9.27;90.69;97821.97;4988476;28;20486;-87
2024/04/03 08:13:13;;;;;;;5.75;1.83;;;;;;;9.75;90.12;97878.22;5013215;28;20052;-87
2024/04/03 08:15:38;;;;;;;6.28;2.20;;;;;;;9.81;90.18;97881.66;4993241;28;20478;-87
2024/04/03 08:18:04;;;;;;;8.45;2.17;;;;;;;9.75;89.96;97882.75;4998232;28;20022;-87
2024/04/03 08:20:29;;;;;;;3.72;2.00;;;;;;;9.80;90.28;97893.41;5003537;28;20517;-87
2024/04/03 08:22:55;;;;;;;5.32;1.88;;;;;;;9.81;90.67;97908.31;4967425;28;20452;-87
2024/04/03 08:25:20;;;;;;;4.00;2.00;;;;;;;9.33;91.59;97859.00;4984891;28;20178;-87
2024/04/03 08:27:45;;;;;;;5.80;2.15;;;;;;;9.21;90.43;97834.50;4996408;28;20034;-87
2024/04/03 08:30:11;;;;;;;8.50;2.35;;;;;;;9.53;91.33;97914.16;5010628;28;20062;-87
2024/04/03 08:32:38;;;;;;;8.52;1.77;;;;;;;9.33;91.20;97864.31;4981719;28;20033;-87
2024/04/03 08:35:04;;;;;;;5.75;2.15;;;;;;;9.57;91.56;97926.69;4994838;28;20041;-87
2024/04/03 08:37:29;;;;;;;3.63;2.03;;;;;;;9.35;92.72;97909.34;4993561;28;20104;-88
2024/04/03 08:39:54;;;;;;;4.95;1.90;;;;;;;9.58;91.64;97919.50;4990606;28;20069;-87
2024/04/03 08:42:20;;;;;;;3.97;2.05;;;;;;;9.25;92.45;97869.38;4956960;28;20033;-87
2024/04/03 08:44:46;;;;;;;4.95;1.73;;;;;;;9.70;91.92;97922.69;5001056;28;20053;-87
2024/04/03 08:47:13;;;;;;;3.58;2.05;;;;;;;9.64;91.65;97919.25;5000883;28;20048;-87
2024/04/03 08:49:39;;;;;;;10.50;2.38;;;;;;;9.45;93.56;97912.81;4996419;28;20037;-87
2024/04/03 08:52:06;;;;;;;6.80;2.15;;;;;;;9.59;92.58;97905.91;4988281;28;20033;-87
2024/04/03 08:54:33;;;;;;;3.78;2.17;;;;;;;9.87;91.42;97901.13;4999251;28;20065;-87
2024/04/03 08:57:00;;;;;;;3.55;1.58;;;;;;;9.93;91.42;97916.06;4979926;28;20033;-87
2024/04/03 08:59:26;;;;;;;7.32;2.30;;;;;;;10.00;92.07;97920.06;4997078;28;20029;-87
2024/04/03 09:01:52;;;;;;;8.00;2.15;;;;;;;9.94;92.33;97917.66;4999025;28;20100;-87
2024/04/03 09:04:21;;;;;;;6.75;1.90;;;;;;;9.69;92.45;97865.97;5011196;28;20049;-87
2024/04/03 09:06:46;;;;;;;3.17;1.80;;;;;;;9.98;92.09;97921.41;4997656;28;20474;-87
2024/04/03 09:09:23;;;;;;;9.57;2.42;;;;;;;10.10;92.09;97922.72;5012842;28;20030;-86
2024/04/03 09:11:51;;;;;;;4.55;2.03;;;;;;;10.02;92.08;97925.94;4994419;28;20084;-87
2024/04/03 09:14:20;;;;;;;7.82;2.33;;;;;;;10.05;92.07;97921.91;5014215;28;20034;-87
2024/04/03 09:16:45;;;;;;;7.63;2.75;;;;;;;9.86;92.50;97886.19;5009256;28;20034;-87
2024/04/03 09:19:11;;;;;;;4.85;1.95;;;;;;;9.86;90.71;97855.03;5015654;28;20034;-87
2024/04/03 09:21:36;;;;;;;3.10;1.75;;;;;;;10.18;90.13;97922.19;4966033;28;20033;-88
2024/04/03 09:24:02;;;;;;;4.60;1.88;;;;;;;9.67;91.41;97827.31;4998193;28;20037;-87
2024/04/03 09:26:27;;;;;;;10.32;2.17;;;;;;;9.68;90.65;97829.72;4995989;28;20033;-87
2024/04/03 09:29:00;;;;;;;3.97;2.30;;;;;;;10.05;90.37;97858.72;5014862;28;20390;-87
2024/04/03 09:31:26;;;;;;;6.68;1.92;;;;;;;9.93;90.76;97868.88;5013161;28;20092;-87
2024/04/03 09:33:53;;;;;;;7.70;2.40;;;;;;;9.78;90.17;97824.38;4995493;28;20077;-87
2024/04/03 09:36:22;;;;;;;5.63;2.47;;;;;;;9.93;89.86;97842.22;4997368;28;20708;-87
2024/04/03 09:38:49;;;;;;;5.88;2.17;;;;;;;10.12;90.57;97877.94;4997775;28;20456;-87
2024/04/03 09:41:15;;;;;;;5.35;1.90;;;;;;;10.25;89.03;97888.06;4986960;28;20042;-87
2024/04/03 09:43:44;;;;;;;11.18;2.47;;;;;;;10.26;89.74;97895.00;4998126;28;20032;-87
2024/04/03 09:46:13;;;;;;;9.35;1.83;;;;;;;10.28;88.75;97895.53;5014090;28;20036;-87
2024/04/03 09:48:40;;;;;;;8.18;2.47;;;;;;;10.32;88.60;97898.44;4998142;28;20029;-87
2024/04/03 09:51:05;;;;;;;14.95;2.22;;;;;;;10.12;88.97;97877.94;4985001;28;20044;-87
2024/04/03 09:53:32;;;;;;;18.17;2.20;;;;;;;9.96;89.24;97870.22;4997743;28;20393;-87
2024/04/03 09:55:58;;;;;;;11.05;3.00;;;;;;;9.80;90.01;97859.56;4994083;28;20034;-87
2024/04/03 09:58:26;;;;;;;7.10;2.28;;;;;;;9.63;89.58;97802.28;4981473;28;20428;-87
2024/04/03 10:00:57;;;;;;;8.93;2.42;;;;;;;10.16;89.91;97896.88;5003564;28;20551;-87
2024/04/03 10:03:30;;;;;;;10.98;2.42;;;;;;;10.15;89.51;97879.28;5010854;28;20049;-87
2024/04/03 10:06:00;;;;;;;9.93;2.05;;;;;;;9.95;89.69;97866.75;5014882;28;20385;-88
2024/04/03 10:08:34;;;;;;;5.85;2.05;;;;;;;10.15;90.09;97896.09;5014997;28;20026;-87
2024/04/03 10:11:05;;;;;;;4.82;2.33;;;;;;;9.97;89.54;97861.13;5019184;28;20076;-87
2024/04/03 10:13:36;;;;;;;4.25;1.90;;;;;;;9.97;88.74;97843.28;4998872;28;20033;-87
2024/04/03 10:16:05;;;;;;;6.70;2.17;;;;;;;10.30;88.42;97884.59;5013228;28;20034;-88
2024/04/03 10:18:36;;;;;;;9.48;1.85;;;;;;;10.10;88.78;97848.06;4979657;28;20057;-87
2024/04/03 10:21:02;;;;;;;8.75;2.17;;;;;;;10.21;88.44;97865.66;4999498;28;20026;-87
2024/04/03 10:23:27;;;;;;;7.75;2.33;;;;;;;10.40;89.17;97879.22;4996824;28;20112;-87
2024/04/03 10:25:53;;;;;;;9.05;2.03;;;;;;;10.14;87.75;97822.50;4997660;28;20033;-87
2024/04/03 10:28:18;;;;;;;9.45;2.38;;;;;;;10.41;88.32;97881.63;4998598;28;20034;-87
2024/04/03 10:30:46;;;;;;;5.25;1.60;;;;;;;10.40;88.53;97885.34;4995676;28;20153;-88
2024/04/03 10:33:12;;;;;;;3.45;1.65;;;;;;;10.43;87.32;97852.00;4999689;28;20145;-87
2024/04/03 10:35:37;;;;;;;7.25;2.78;;;;;;;10.57;88.52;97880.50;4964635;28;20053;-87
2024/04/03 10:38:03;;;;;;;3.22;1.67;;;;;;;10.60;88.49;97857.00;4997259;28;20394;-87
2024/04/03 10:40:32;;;;;;;5.00;1.85;;;;;;;10.68;89.42;97875.16;4999116;28;20042;-88
2024/04/03 10:42:58;;;;;;;6.80;2.05;;;;;;;10.62;88.86;97857.53;4998364;28;20532;-87
2024/04/03 10:45:23;;;;;;;5.78;2.10;;;;;;;10.67;87.59;97842.31;5012831;28;20026;-88
2024/04/03 10:47:49;;;;;;;4.07;2.28;;;;;;;10.82;87.87;97860.94;4983563;28;20049;-88
2024/04/03 10:50:16;;;;;;;2.58;1.95;;;;;;;10.29;87.61;97769.09;4996621;28;20125;-87
2024/04/03 10:52:42;;;;;;;5.35;2.42;;;;;;;10.87;87.60;97836.91;5014488;28;20396;-87
2024/04/03 10:55:07;;;;;;;4.13;1.50;;;;;;;11.01;87.11;97853.09;5002557;28;20045;-88
2024/04/03 10:57:32;;;;;;;5.43;1.90;;;;;;;11.11;86.68;97863.75;4994893;28;20025;-87
2024/04/03 10:59:58;;;;;;;4.13;1.67;;;;;;;10.74;86.90;97810.81;5013588;28;20026;-87
2024/04/03 11:02:27;;;;;;;4.15;1.40;;;;;;;11.10;87.13;97854.91;5015126;28;20602;-88
2024/04/03 11:04:52;;;;;;;5.78;2.00;;;;;;;11.13;86.49;97864.25;5004594;28;20042;-87
2024/04/03 11:07:17;;;;;;;5.03;1.63;;;;;;;11.12;86.75;97846.63;4983984;28;20084;-87
2024/04/03 11:09:43;;;;;;;3.50;1.90;;;;;;;10.99;86.33;97842.69;4986617;28;20034;-87
2024/04/03 11:12:12;;;;;;;3.63;1.50;;;;;;;11.15;86.69;97844.22;4977973;28;20125;-87
2024/04/03 11:14:39;;;;;;;5.97;1.90;;;;;;;11.19;87.05;97847.94;5011229;28;20073;-87
2024/04/03 11:17:07;;;;;;;5.70;1.60;;;;;;;11.00;87.26;97803.44;5000991;28;20022;-87
2024/04/03 11:19:39;;;;;;;2.53;1.52;;;;;;;11.18;86.69;97822.28;5000252;28;20036;-87
2024/04/03 11:22:04;;;;;;;4.32;1.60;;;;;;;11.11;86.79;97788.97;5016301;28;20053;-87
2024/04/03 11:24:29;;;;;;;3.45;1.50;;;;;;;11.41;86.28;97836.03;4983196;28;20066;-87
2024/04/03 11:26:55;;;;;;;6.60;2.17;;;;;;;11.16;86.33;97824.44;5000886;28;20477;-87
2024/04/03 11:29:31;;;;;;;4.68;1.90;;;;;;;11.34;88.04;97833.66;4992998;28;20038;-87
2024/04/03 11:31:59;;;;;;;6.90;1.75;;;;;;;11.21;86.44;97794.22;5011212;28;20025;-87
2024/04/03 11:34:29;;;;;;;4.18;1.63;;;;;;;11.47;86.33;97835.72;4982287;28;20485;-87
2024/04/03 11:36:56;;;;;;;2.72;1.40;;;;;;;11.57;85.60;97838.31;4994300;28;20109;-87
2024/04/03 11:39:22;;;;;;;3.33;1.63;;;;;;;11.47;86.51;97824.22;4975148;28;20045;-87